SCPR weather

Corte Alto Airport
Purranque, Los Lagos Region, Chile

Public forecast

Using degrees Celsius for public forecast. Weather courtesy of forecast.io.

METAR (pilot weather report)

Report is more than 2 hours old.

Closest report is Cañal Bajo Carlos - Hott Siebert Airport, 20.5 nm (38.1 km) NNE. Retrieved 2019/06/19 22:00 UTC (2 hours ago):

SCJO 192200Z 00000KT CAVOK 09/08 Q1017

TAF (pilot weather forecast)

Forecast is more than 6 hours old.

Closest forecast is Cañal Bajo Carlos - Hott Siebert Airport, 20.5 nm (38.1 km) NNE. Retrieved 2019/06/19 12:33 UTC (12 hours ago):

TAF SCJO 191053Z 1912/1924 01005KT 9999 BKN030 TN09/1912Z TX13/1919Z BECMG 1914/1916 SCT030 BECMG 1917/1919 VRB03KT BECMG 1920/1922 CAVOK